Airfield :







YOU CAN JOIN US ON...

 
LOGIN :

Register | Disclaimer

   EN    FR    IT 

 









Legend :    VFR   Marginal VFR   IFR   Intensive IFR   Very Intensive IFR
Visi :
Ceiling :
>= 8 km
>= 3000ft
5 to 8 km
1000 to 3000 ft
1500m to 5 km
500 to 1000 ft
800 to 1500m
200 to 500 ft
< 800m
< 200 ft
Symbols :   Thunderstorms  Fog  Heavy snow  Heavy precipitations  Wind > 20 kt






- Airport Elevation : 118 ft
- IATA code : YUL


CYUL - Montréal - Pierre-Elliott-Trudeau Int.

CURRENT METAR :
  • 182000Z 26012KT 240V300 30SM FEW058 FEW080 FEW220 BKN250 25/09 A3016 RMK CF1AC1CI1CI4 CF TR CI TR SLP214 DENSITY ALT 1100FT

EXPIRED METARs :
  • 181900Z 24013KT 200V280 30SM FEW057 FEW075 FEW180 BKN250 25/09 A3016 RMK CF1AC1AC1CI3 AC TR SLP215 DENSITY ALT 1100FT
  • 181800Z 20014KT 30SM FEW055 SCT100 SCT220 BKN250 23/12 A3018 RMK CF2AC1CI1CI3 CI TR SLP223 DENSITY ALT 900FT

TAF TAF CYUL
Valid from the 18 at 18:00 until the 19 at 18:00 UTC


181741Z 1818/1918 20010KT P6SM FEW040 FEW070
BECMG 1821/1823 30010KT
BECMG 1904/1906 04008KT
FM190900 04005KT P6SM SCT060
BECMG 1916/1918 22010KT RMK NXT FCST BY 182100Z
ATIS : ENG : +1 514-633-3037 FRA : +1 514-633-3034
CZUL FIR / North America



MET'MAP, your aeronautical weather chart ! - Copyright ORBIFLY December 2007 - Disclaimer

ORBIFLY MET'MAP TEAM :

Programming & Development : Alexandra Zaïnal
Concept & original design : Baudouin d'Aumeries
Assistance for programming : Marc-Olivier Méhu
Technical & hardware support : Manuel Goepfert

Contact : metmap@orbifly.com




SOURCES & CREDITS :

   NOAA